createdAt,value
2022-09-15T00:00:36.023Z,64.44
2022-09-15T00:03:07.743Z,66.68
2022-09-15T00:05:39.900Z,64.90
2022-09-15T00:08:14.590Z,64.23
2022-09-15T00:10:58.042Z,67.01
2022-09-15T00:13:30.251Z,66.21
2022-09-15T00:16:02.350Z,67.84
2022-09-15T00:18:34.612Z,72.11
2022-09-15T00:21:12.061Z,70.67
2022-09-15T00:23:44.485Z,67.83
2022-09-15T00:26:23.670Z,67.05
2022-09-15T00:28:56.342Z,67.83
2022-09-15T00:31:30.526Z,67.87
2022-09-15T00:34:04.427Z,67.49
2022-09-15T00:36:36.829Z,67.90
2022-09-15T00:39:08.611Z,72.61
2022-09-15T00:41:42.536Z,67.40
2022-09-15T00:44:39.184Z,67.79
2022-09-15T00:47:19.112Z,67.02
2022-09-15T00:49:58.970Z,67.10
2022-09-15T00:52:58.407Z,67.20
2022-09-15T00:55:36.457Z,66.83
2022-09-15T00:58:14.901Z,66.62
2022-09-15T01:00:57.042Z,67.17
2022-09-15T01:03:34.177Z,67.47
2022-09-15T01:06:21.903Z,66.99
2022-09-15T01:09:03.926Z,66.99
2022-09-15T01:11:36.764Z,67.16
2022-09-15T01:14:08.941Z,67.58
2022-09-15T01:16:50.117Z,67.54
2022-09-15T01:20:00.261Z,67.40
2022-09-15T01:22:50.406Z,67.05
2022-09-15T01:25:46.603Z,67.65
2022-09-15T01:28:50.403Z,67.36
2022-09-15T01:31:26.874Z,67.38
2022-09-15T01:34:07.817Z,67.51
2022-09-15T01:36:43.027Z,67.27
2022-09-15T01:39:20.682Z,67.79
2022-09-15T01:42:08.240Z,67.10
2022-09-15T01:45:05.460Z,67.52
2022-09-15T01:47:39.196Z,67.52
2022-09-15T01:50:20.465Z,66.96
2022-09-15T01:52:56.482Z,67.23
2022-09-15T01:55:55.420Z,67.09
2022-09-15T01:58:28.451Z,67.08
2022-09-15T02:01:06.138Z,67.06
2022-09-15T02:04:15.934Z,67.13
2022-09-15T02:06:59.687Z,67.17
2022-09-15T02:09:39.525Z,67.17
2022-09-15T02:12:35.478Z,67.29
2022-09-15T02:15:13.378Z,66.97
2022-09-15T02:17:53.748Z,66.89
2022-09-15T02:21:10.829Z,66.44
2022-09-15T02:23:52.760Z,66.50
2022-09-15T02:26:29.803Z,66.31
2022-09-15T02:29:11.939Z,66.98
2022-09-15T02:31:45.621Z,66.43
2022-09-15T02:34:31.610Z,66.49
2022-09-15T02:37:06.337Z,66.55
2022-09-15T02:39:42.750Z,66.46
2022-09-15T02:42:15.024Z,66.62
2022-09-15T02:44:47.170Z,66.53
2022-09-15T02:47:19.460Z,66.42
2022-09-15T02:49:52.230Z,66.25
2022-09-15T02:52:24.599Z,66.34
2022-09-15T02:54:56.732Z,65.83
2022-09-15T02:57:29.221Z,65.82
2022-09-15T03:00:18.295Z,65.98
2022-09-15T03:02:53.433Z,66.09
2022-09-15T03:05:31.906Z,65.81
2022-09-15T03:08:04.540Z,65.93
2022-09-15T03:10:36.664Z,65.47
2022-09-15T03:13:10.235Z,65.24
2022-09-15T03:15:42.794Z,65.38
2022-09-15T03:18:14.979Z,65.16
2022-09-15T03:20:47.211Z,65.41
2022-09-15T03:23:19.474Z,64.88
2022-09-15T03:25:51.605Z,65.10
2022-09-15T03:28:23.815Z,65.04
2022-09-15T03:30:56.944Z,64.75
2022-09-15T03:33:29.300Z,64.52
2022-09-15T03:36:03.010Z,64.61
2022-09-15T03:38:35.630Z,64.68
2022-09-15T03:41:12.117Z,64.05
2022-09-15T03:43:44.251Z,64.37
2022-09-15T03:46:16.614Z,64.13
2022-09-15T03:48:51.550Z,64.07
2022-09-15T03:51:23.735Z,64.19
2022-09-15T03:53:57.281Z,64.22
2022-09-15T03:56:32.961Z,63.68
2022-09-15T03:59:07.274Z,64.22
2022-09-15T04:01:39.451Z,64.05
2022-09-15T04:04:12.101Z,64.40
2022-09-15T04:06:44.433Z,64.03
2022-09-15T04:09:16.736Z,64.03
2022-09-15T04:11:49.361Z,64.07
2022-09-15T04:14:21.494Z,63.83
2022-09-15T04:16:53.895Z,63.57
2022-09-15T04:19:26.236Z,63.75
2022-09-15T04:21:58.356Z,63.48
2022-09-15T04:24:30.617Z,63.76
2022-09-15T04:27:02.895Z,63.85
2022-09-15T04:29:35.565Z,63.77
2022-09-15T04:32:07.923Z,63.96
2022-09-15T04:34:41.504Z,64.04
2022-09-15T04:37:14.466Z,63.61
2022-09-15T04:39:46.648Z,63.30
2022-09-15T04:42:18.982Z,63.29
2022-09-15T04:44:51.227Z,63.40
2022-09-15T04:47:23.407Z,63.10
2022-09-15T04:49:55.899Z,63.41
2022-09-15T04:52:28.065Z,63.31
2022-09-15T04:55:00.242Z,63.16
2022-09-15T04:57:32.653Z,63.05
2022-09-15T05:00:08.140Z,62.95
2022-09-15T05:02:40.540Z,62.91
2022-09-15T05:05:12.762Z,62.89
2022-09-15T05:07:44.968Z,63.29
2022-09-15T05:10:18.645Z,62.97
2022-09-15T05:12:50.860Z,62.94
2022-09-15T05:15:24.495Z,62.73
2022-09-15T05:17:56.696Z,63.26
2022-09-15T05:20:28.934Z,62.94
2022-09-15T05:23:01.005Z,62.88
2022-09-15T05:25:33.455Z,62.98
2022-09-15T05:28:05.601Z,62.95
2022-09-15T05:30:44.246Z,62.83
2022-09-15T05:33:22.791Z,62.77
2022-09-15T05:36:02.266Z,62.91
2022-09-15T05:38:34.917Z,62.78
2022-09-15T05:41:09.643Z,62.88
2022-09-15T05:43:42.157Z,63.00
2022-09-15T05:46:15.142Z,62.74
2022-09-15T05:48:48.502Z,62.78
2022-09-15T05:51:20.563Z,62.55
2022-09-15T05:53:52.978Z,62.29
2022-09-15T05:56:25.210Z,62.69
2022-09-15T05:58:57.395Z,62.30
2022-09-15T06:01:30.094Z,63.32
2022-09-15T06:04:03.237Z,62.25
2022-09-15T06:06:35.352Z,62.49
2022-09-15T06:09:26.118Z,62.24
2022-09-15T06:11:57.614Z,63.16
2022-09-15T06:14:30.094Z,62.33
2022-09-15T06:17:02.052Z,61.83
2022-09-15T06:19:36.048Z,61.94
2022-09-15T06:22:08.038Z,62.04
2022-09-15T06:24:39.677Z,63.02
2022-09-15T06:27:14.600Z,62.06
2022-09-15T06:30:05.036Z,62.05
2022-09-15T06:32:41.296Z,61.64
2022-09-15T06:35:15.408Z,61.62
2022-09-15T06:37:47.491Z,61.21
2022-09-15T06:40:19.561Z,61.52
2022-09-15T06:42:56.867Z,61.24
2022-09-15T06:45:28.886Z,61.25
2022-09-15T06:48:20.650Z,61.00
2022-09-15T06:50:57.457Z,61.31
2022-09-15T06:53:37.981Z,61.17
2022-09-15T06:56:13.311Z,60.69
2022-09-15T06:58:46.850Z,60.87
2022-09-15T07:01:25.047Z,60.80
2022-09-15T07:03:58.745Z,60.76
2022-09-15T07:06:32.458Z,60.62
2022-09-15T07:09:05.111Z,60.61
2022-09-15T07:11:37.320Z,60.49
2022-09-15T07:14:09.451Z,60.71
2022-09-15T07:16:41.553Z,60.37
2022-09-15T07:19:13.998Z,60.35
2022-09-15T07:21:48.218Z,60.28
2022-09-15T07:24:25.129Z,60.32
2022-09-15T07:26:58.849Z,60.48
2022-09-15T07:29:33.792Z,60.30
2022-09-15T07:32:08.717Z,59.91
2022-09-15T07:34:40.942Z,60.11
2022-09-15T07:37:14.374Z,59.71
2022-09-15T07:39:46.719Z,59.58
2022-09-15T07:42:19.855Z,59.64
2022-09-15T07:44:51.852Z,59.62
2022-09-15T07:47:24.143Z,59.48
2022-09-15T07:49:56.572Z,59.57
2022-09-15T07:52:28.247Z,59.87
2022-09-15T07:55:00.350Z,59.57
2022-09-15T07:57:33.911Z,59.37
2022-09-15T08:00:06.898Z,59.42
2022-09-15T08:02:43.647Z,59.30
2022-09-15T08:05:20.359Z,59.01
2022-09-15T08:07:54.402Z,58.88
2022-09-15T08:10:27.430Z,58.61
2022-09-15T08:13:00.352Z,58.94
2022-09-15T08:15:36.491Z,58.75
2022-09-15T08:18:10.510Z,58.71
2022-09-15T08:20:44.034Z,58.68
2022-09-15T08:23:16.151Z,58.87
2022-09-15T08:25:49.075Z,58.38
2022-09-15T08:28:22.622Z,58.53
2022-09-15T08:31:07.349Z,58.49
2022-09-15T08:33:43.368Z,58.62
2022-09-15T08:36:17.787Z,58.63
2022-09-15T08:38:50.201Z,58.35
2022-09-15T08:41:37.320Z,58.03
2022-09-15T08:44:43.454Z,57.91
2022-09-15T08:47:27.321Z,57.70
2022-09-15T08:50:14.616Z,57.90
2022-09-15T08:52:51.162Z,57.89
2022-09-15T08:55:51.640Z,58.03
2022-09-15T08:58:33.581Z,57.87
2022-09-15T09:01:13.930Z,57.75
2022-09-15T09:03:57.500Z,57.94
2022-09-15T09:06:47.711Z,58.09
2022-09-15T09:09:35.590Z,57.86
2022-09-15T09:12:40.210Z,57.86
2022-09-15T09:15:35.236Z,58.08
2022-09-15T09:18:54.476Z,58.01
2022-09-15T09:21:40.914Z,57.83
2022-09-15T09:24:28.625Z,59.48
2022-09-15T09:27:01.641Z,59.87
2022-09-15T09:29:41.241Z,60.07
2022-09-15T09:32:26.380Z,60.71
2022-09-15T09:35:01.652Z,60.30
2022-09-15T09:37:35.427Z,60.41
2022-09-15T09:40:08.007Z,60.41
2022-09-15T09:42:43.884Z,60.44
2022-09-15T09:45:18.038Z,60.59
2022-09-15T09:47:50.201Z,60.71
2022-09-15T09:50:44.553Z,61.57
2022-09-15T09:53:31.376Z,62.14
2022-09-15T09:56:26.561Z,62.08
2022-09-15T09:58:58.659Z,61.52
2022-09-15T10:01:32.478Z,61.71
2022-09-15T10:04:20.877Z,62.46
2022-09-15T10:06:57.485Z,62.36
2022-09-15T10:09:33.240Z,62.26
2022-09-15T10:12:07.609Z,62.47
2022-09-15T10:14:44.429Z,62.69
2022-09-15T10:17:22.767Z,62.72
2022-09-15T10:19:56.082Z,62.41
2022-09-15T10:22:41.700Z,61.99
2022-09-15T10:25:22.741Z,62.35
2022-09-15T10:28:14.911Z,62.85
2022-09-15T10:31:08.917Z,62.96
2022-09-15T10:33:49.522Z,62.64
2022-09-15T10:36:41.551Z,63.00
2022-09-15T10:39:25.339Z,63.78
2022-09-15T10:42:23.784Z,63.86
2022-09-15T10:45:09.174Z,64.03
2022-09-15T10:48:00.381Z,64.52
2022-09-15T10:50:41.487Z,63.39
2022-09-15T10:53:24.018Z,63.59
2022-09-15T10:56:31.136Z,63.32
2022-09-15T10:59:30.501Z,63.40
2022-09-15T11:02:57.402Z,63.42
2022-09-15T11:05:40.750Z,62.77
2022-09-15T11:08:39.721Z,62.72
2022-09-15T11:11:21.367Z,62.54
2022-09-15T11:14:11.802Z,63.33
2022-09-15T11:16:51.264Z,63.19
2022-09-15T11:19:37.212Z,62.99
2022-09-15T11:22:20.091Z,63.06
2022-09-15T11:25:12.806Z,63.00
2022-09-15T11:28:21.467Z,62.62
2022-09-15T11:31:05.572Z,62.80
2022-09-15T11:33:51.530Z,62.65
2022-09-15T11:36:39.478Z,63.17
2022-09-15T11:39:25.786Z,63.07
2022-09-15T11:42:09.670Z,63.17
2022-09-15T11:44:48.197Z,63.45
2022-09-15T11:47:26.744Z,63.26
2022-09-15T11:50:18.162Z,63.25
2022-09-15T11:53:02.430Z,63.65
2022-09-15T11:55:37.229Z,63.42
2022-09-15T11:58:22.574Z,63.76
2022-09-15T12:01:14.419Z,63.95
2022-09-15T12:04:00.338Z,63.19
2022-09-15T12:06:45.917Z,63.43
2022-09-15T12:09:21.297Z,63.15
2022-09-15T12:12:09.553Z,63.27
2022-09-15T12:14:45.969Z,63.35
2022-09-15T12:17:24.756Z,63.42
2022-09-15T12:20:09.808Z,63.41
2022-09-15T12:22:49.488Z,63.40
2022-09-15T12:25:35.528Z,63.28
2022-09-15T12:28:26.431Z,63.42
2022-09-15T12:31:17.733Z,63.47
2022-09-15T12:33:59.733Z,63.57
2022-09-15T12:36:35.163Z,63.71
2022-09-15T12:39:39.450Z,64.18
2022-09-15T12:42:34.782Z,63.68
2022-09-15T12:45:22.339Z,63.57
2022-09-15T12:48:06.405Z,63.71
2022-09-15T12:50:42.588Z,63.86
2022-09-15T12:56:31.271Z,66.70
2022-09-15T12:59:09.010Z,66.28
2022-09-15T13:01:51.819Z,65.50
2022-09-15T13:04:46.943Z,65.53
2022-09-15T13:07:19.970Z,66.19
2022-09-15T13:10:13.047Z,65.48
2022-09-15T13:12:53.586Z,64.89
2022-09-15T13:15:29.697Z,63.52
2022-09-15T13:18:07.825Z,62.72
2022-09-15T13:20:45.037Z,61.44
2022-09-15T13:23:24.783Z,60.21
2022-09-15T13:26:00.092Z,59.45
2022-09-15T13:28:33.186Z,59.05
2022-09-15T13:31:17.886Z,58.38
2022-09-15T13:40:50.260Z,58.22
2022-09-15T13:43:38.690Z,57.36
2022-09-15T13:46:32.496Z,56.83
2022-09-15T13:49:37.150Z,58.69
2022-09-15T13:52:49.371Z,59.80
2022-09-15T13:55:30.333Z,59.48
2022-09-15T14:01:10.692Z,59.35
2022-09-15T14:04:04.031Z,58.58
2022-09-15T14:06:45.223Z,57.46
2022-09-15T14:09:40.295Z,57.45
2022-09-15T14:12:17.701Z,56.92
2022-09-15T14:14:59.426Z,56.86
2022-09-15T14:17:34.818Z,56.10
2022-09-15T14:20:27.481Z,55.32
2022-09-15T14:23:03.915Z,55.38
2022-09-15T14:25:40.162Z,54.53
2022-09-15T14:28:31.340Z,53.76
2022-09-15T14:31:05.417Z,53.84
2022-09-15T14:33:41.389Z,53.24
2022-09-15T14:36:34.897Z,53.09
2022-09-15T14:39:14.348Z,52.73
2022-09-15T14:41:53.391Z,53.16
2022-09-15T14:47:41.333Z,52.10
2022-09-15T14:50:33.967Z,51.64
2022-09-15T14:53:27.163Z,51.70
2022-09-15T14:56:18.524Z,51.27
2022-09-15T14:59:01.060Z,51.17
2022-09-15T15:01:52.545Z,51.46
2022-09-15T15:04:41.936Z,51.18
2022-09-15T15:07:32.811Z,51.09
2022-09-15T15:10:20.084Z,50.53
2022-09-15T15:13:06.704Z,51.46
2022-09-15T15:15:40.617Z,52.11
2022-09-15T15:18:48.073Z,51.38
2022-09-15T15:21:36.397Z,52.08
2022-09-15T15:24:20.009Z,52.65
2022-09-15T15:26:53.320Z,53.13
2022-09-15T15:29:47.536Z,52.47
2022-09-15T15:32:23.813Z,51.72
2022-09-15T15:35:04.562Z,51.00
2022-09-15T15:37:37.188Z,51.54
2022-09-15T15:40:19.602Z,50.99
2022-09-15T15:42:57.793Z,51.57
2022-09-15T15:45:35.664Z,51.07
2022-09-15T15:48:10.704Z,51.14
2022-09-15T15:50:42.940Z,51.23
2022-09-15T15:53:15.617Z,50.53
2022-09-15T15:55:48.918Z,50.41
2022-09-15T15:58:21.283Z,50.50
2022-09-15T16:00:58.038Z,49.94
2022-09-15T16:03:30.515Z,50.05
2022-09-15T16:06:04.594Z,50.21
2022-09-15T16:08:41.253Z,49.97
2022-09-15T16:11:17.211Z,49.65
2022-09-15T16:13:49.937Z,49.69
2022-09-15T16:16:27.739Z,49.64
2022-09-15T16:19:00.113Z,49.32
2022-09-15T16:21:40.594Z,48.61
2022-09-15T16:24:16.908Z,48.97
2022-09-15T16:26:53.708Z,49.74
2022-09-15T16:29:30.619Z,49.29
2022-09-15T16:32:03.129Z,49.87
2022-09-15T16:34:35.437Z,49.40
2022-09-15T16:37:08.979Z,49.45
2022-09-15T16:39:41.248Z,49.58
2022-09-15T16:42:13.527Z,49.27
2022-09-15T16:44:46.845Z,49.65
2022-09-15T16:47:19.286Z,49.33
2022-09-15T16:49:52.764Z,49.38
2022-09-15T16:52:25.195Z,49.98
2022-09-15T16:54:58.201Z,49.57
2022-09-15T16:57:30.438Z,50.05
2022-09-15T17:00:02.714Z,49.44
2022-09-15T17:02:35.445Z,49.38
2022-09-15T17:05:25.327Z,48.71
2022-09-15T17:07:58.588Z,49.20
2022-09-15T17:10:31.005Z,48.98
2022-09-15T17:13:04.405Z,49.50
2022-09-15T17:15:41.512Z,48.30
2022-09-15T17:18:17.336Z,49.29
2022-09-15T17:20:51.400Z,48.67
2022-09-15T17:23:32.601Z,48.77
2022-09-15T17:26:07.729Z,49.12
2022-09-15T17:28:40.351Z,49.26
2022-09-15T17:31:24.551Z,48.52
2022-09-15T17:33:57.254Z,48.64
2022-09-15T17:36:29.638Z,48.37
2022-09-15T17:39:01.991Z,48.27
2022-09-15T17:41:34.804Z,48.90
2022-09-15T17:44:12.551Z,47.88
2022-09-15T17:46:45.332Z,48.53
2022-09-15T17:49:17.927Z,48.77
2022-09-15T17:51:50.625Z,48.05
2022-09-15T17:54:22.947Z,47.96
2022-09-15T17:56:55.276Z,48.37
2022-09-15T17:59:27.613Z,48.39
2022-09-15T18:02:00.035Z,48.50
2022-09-15T18:04:32.367Z,48.20
2022-09-15T18:07:04.605Z,48.00
2022-09-15T18:09:36.856Z,48.05
2022-09-15T18:12:10.990Z,47.80
2022-09-15T18:14:43.204Z,47.84
2022-09-15T18:17:15.450Z,48.09
2022-09-15T18:19:47.821Z,47.76
2022-09-15T18:22:21.233Z,47.51
2022-09-15T18:24:53.525Z,47.45
2022-09-15T18:27:25.814Z,48.09
2022-09-15T18:29:58.346Z,47.89
2022-09-15T18:32:30.595Z,47.84
2022-09-15T18:35:02.883Z,47.73
2022-09-15T18:37:35.193Z,47.21
2022-09-15T18:40:10.996Z,47.16
2022-09-15T18:42:43.353Z,47.22
2022-09-15T18:45:17.923Z,47.72
2022-09-15T18:47:51.880Z,47.22
2022-09-15T18:50:26.680Z,47.04
2022-09-15T18:52:58.993Z,47.17
2022-09-15T18:55:31.325Z,47.41
2022-09-15T18:58:04.175Z,47.60
2022-09-15T19:00:36.494Z,47.54
2022-09-15T19:03:11.489Z,46.67
2022-09-15T19:05:43.942Z,47.15
2022-09-15T19:08:17.032Z,47.26
2022-09-15T19:10:58.993Z,47.14
2022-09-15T19:13:31.798Z,47.08
2022-09-15T19:16:08.371Z,47.32
2022-09-15T19:18:40.701Z,47.71
2022-09-15T19:21:14.336Z,47.44
2022-09-15T19:23:46.869Z,47.66
2022-09-15T19:26:19.568Z,47.13
2022-09-15T19:28:53.116Z,46.81
2022-09-15T19:31:27.714Z,47.14
2022-09-15T19:34:00.156Z,47.49
2022-09-15T19:36:33.849Z,47.03
2022-09-15T19:39:06.881Z,47.03
2022-09-15T19:41:39.247Z,46.96
2022-09-15T19:44:11.544Z,46.85
2022-09-15T19:46:44.172Z,46.96
2022-09-15T19:49:16.499Z,47.30
2022-09-15T19:51:54.444Z,47.48
2022-09-15T19:54:28.764Z,47.21
2022-09-15T19:57:01.473Z,46.93
2022-09-15T19:59:33.763Z,46.79
2022-09-15T20:02:06.590Z,46.72
2022-09-15T20:04:41.223Z,46.77
2022-09-15T20:07:14.118Z,46.89
2022-09-15T20:09:46.598Z,46.86
2022-09-15T20:12:18.845Z,46.97
2022-09-15T20:14:51.150Z,46.79
2022-09-15T20:17:23.415Z,47.17
2022-09-15T20:19:55.651Z,46.98
2022-09-15T20:22:27.405Z,47.17
2022-09-15T20:24:59.559Z,46.74
2022-09-15T20:27:32.617Z,46.58
2022-09-15T20:30:04.920Z,46.49
2022-09-15T20:32:37.589Z,46.81
2022-09-15T20:35:10.185Z,46.39
2022-09-15T20:37:43.485Z,46.45
2022-09-15T20:40:16.271Z,46.59
2022-09-15T20:42:49.337Z,46.89
2022-09-15T20:45:21.558Z,46.97
2022-09-15T20:47:55.864Z,47.12
2022-09-15T20:50:28.950Z,47.09
2022-09-15T20:53:01.608Z,46.76
2022-09-15T20:55:33.880Z,46.64
2022-09-15T20:58:06.238Z,47.10
2022-09-15T21:00:38.613Z,46.38
2022-09-15T21:03:10.883Z,46.40
2022-09-15T21:05:44.980Z,46.71
2022-09-15T21:08:17.266Z,46.78
2022-09-15T21:10:50.827Z,46.80
2022-09-15T21:13:24.429Z,46.74
2022-09-15T21:16:04.004Z,46.31
2022-09-15T21:18:38.475Z,46.15
2022-09-15T21:21:19.221Z,45.74
2022-09-15T21:23:57.948Z,45.92
2022-09-15T21:26:57.583Z,46.38
2022-09-15T21:29:30.937Z,46.08
2022-09-15T21:32:03.555Z,46.25
2022-09-15T21:34:35.923Z,46.55
2022-09-15T21:37:08.260Z,46.65
2022-09-15T21:39:40.718Z,46.06
2022-09-15T21:42:14.423Z,46.10
2022-09-15T21:44:46.732Z,46.06
2022-09-15T21:47:21.747Z,46.09
2022-09-15T21:49:53.536Z,46.00
2022-09-15T21:52:26.966Z,46.40
2022-09-15T21:55:00.913Z,46.12
2022-09-15T21:57:33.145Z,46.13
2022-09-15T22:00:06.557Z,46.50
2022-09-15T22:02:38.755Z,46.34
2022-09-15T22:05:11.092Z,45.88
2022-09-15T22:07:43.584Z,45.84
2022-09-15T22:11:00.386Z,46.13
2022-09-15T22:13:32.713Z,45.86
2022-09-15T22:16:07.522Z,46.05
2022-09-15T22:18:41.955Z,45.90
2022-09-15T22:21:20.292Z,45.48
2022-09-15T22:23:54.172Z,45.93
2022-09-15T22:26:32.403Z,45.64
2022-09-15T22:29:06.124Z,46.10
2022-09-15T22:31:39.317Z,45.93
2022-09-15T22:34:12.916Z,46.10
2022-09-15T22:36:45.786Z,45.97
2022-09-15T22:39:18.997Z,45.80
2022-09-15T22:41:52.381Z,46.03
2022-09-15T22:44:25.047Z,46.20
2022-09-15T22:46:58.953Z,46.30
2022-09-15T22:49:31.740Z,45.94
2022-09-15T22:52:04.633Z,46.00
2022-09-15T22:54:37.850Z,46.46
2022-09-15T22:57:10.867Z,46.46
2022-09-15T22:59:44.065Z,46.07
2022-09-15T23:02:17.094Z,46.45
2022-09-15T23:04:50.163Z,47.03
2022-09-15T23:07:22.896Z,46.82
2022-09-15T23:09:55.897Z,47.67
2022-09-15T23:12:28.641Z,47.66
2022-09-15T23:15:05.595Z,48.52
2022-09-15T23:17:38.344Z,48.15
2022-09-15T23:20:12.697Z,48.66
2022-09-15T23:22:45.772Z,49.05
2022-09-15T23:25:18.787Z,49.40
2022-09-15T23:27:51.686Z,50.27
2022-09-15T23:30:24.484Z,53.02
2022-09-15T23:32:57.288Z,55.25
2022-09-15T23:35:30.041Z,56.83
2022-09-15T23:38:03.200Z,57.57
2022-09-15T23:40:35.906Z,58.77
2022-09-15T23:43:08.694Z,62.72
2022-09-15T23:45:41.993Z,65.37
2022-09-15T23:48:16.311Z,64.49
2022-09-15T23:50:49.259Z,65.35
2022-09-15T23:53:22.029Z,67.84
2022-09-15T23:55:54.832Z,68.35
2022-09-15T23:58:27.576Z,68.06
